createdAt,value
2022-07-31T00:02:08.032Z,99692.69
2022-07-31T00:04:34.802Z,99696.88
2022-07-31T00:07:01.744Z,99700.19
2022-07-31T00:09:52.416Z,99688.44
2022-07-31T00:12:15.407Z,99692.78
2022-07-31T00:14:42.026Z,99691.28
2022-07-31T00:17:08.882Z,99689.44
2022-07-31T00:19:35.569Z,99689.63
2022-07-31T00:22:02.211Z,99691.16
2022-07-31T00:24:28.892Z,99691.34
2022-07-31T00:26:56.944Z,99686.81
2022-07-31T00:29:23.581Z,99690.50
2022-07-31T00:31:50.361Z,99687.81
2022-07-31T00:34:17.008Z,99689.81
2022-07-31T00:36:43.717Z,99693.03
2022-07-31T00:39:10.547Z,99689.84
2022-07-31T00:41:46.548Z,99693.66
2022-07-31T00:44:13.933Z,99688.59
2022-07-31T00:46:42.009Z,99677.84
2022-07-31T00:49:10.372Z,99677.75
2022-07-31T00:51:38.671Z,99680.00
2022-07-31T00:54:06.640Z,99683.06
2022-07-31T00:56:33.342Z,99693.72
2022-07-31T00:59:00.141Z,99696.94
2022-07-31T01:01:26.947Z,99697.34
2022-07-31T01:03:54.049Z,99692.97
2022-07-31T01:06:20.736Z,99692.97
2022-07-31T01:08:47.441Z,99700.66
2022-07-31T01:11:23.299Z,99693.44
2022-07-31T01:13:58.505Z,99692.06
2022-07-31T01:16:30.750Z,99692.78
2022-07-31T01:18:59.230Z,99696.19
2022-07-31T01:21:40.012Z,99696.47
2022-07-31T01:24:34.310Z,99695.34
2022-07-31T01:27:12.635Z,99700.06
2022-07-31T01:29:45.523Z,99701.50
2022-07-31T01:32:29.343Z,99700.03
2022-07-31T01:35:06.637Z,99702.59
2022-07-31T01:37:54.889Z,99704.78
2022-07-31T01:40:27.915Z,99709.50
2022-07-31T01:43:02.222Z,99706.19
2022-07-31T01:45:30.916Z,99707.53
2022-07-31T01:47:57.608Z,99706.75
2022-07-31T01:50:42.848Z,99702.91
2022-07-31T01:53:13.417Z,99703.94
2022-07-31T01:56:02.538Z,99698.72
2022-07-31T01:58:32.968Z,99702.28
2022-07-31T02:01:02.851Z,99700.16
2022-07-31T02:03:43.599Z,99695.28
2022-07-31T02:06:17.198Z,99695.91
2022-07-31T02:08:49.469Z,99699.16
2022-07-31T02:11:18.865Z,99700.13
2022-07-31T02:13:47.826Z,99691.00
2022-07-31T02:16:16.662Z,99698.22
2022-07-31T02:18:43.645Z,99690.03
2022-07-31T02:21:10.581Z,99694.41
2022-07-31T02:23:38.221Z,99686.72
2022-07-31T02:26:05.817Z,99687.66
2022-07-31T02:28:38.521Z,99682.22
2022-07-31T02:31:10.964Z,99683.06
2022-07-31T02:33:39.643Z,99671.66
2022-07-31T02:36:07.058Z,99677.69
2022-07-31T02:38:35.649Z,99674.44
2022-07-31T02:41:03.868Z,99675.91
2022-07-31T02:43:32.901Z,99680.75
2022-07-31T02:46:00.412Z,99680.91
2022-07-31T02:48:27.701Z,99673.59
2022-07-31T02:50:55.321Z,99673.00
2022-07-31T02:53:22.284Z,99670.25
2022-07-31T02:55:50.682Z,99673.34
2022-07-31T02:58:17.422Z,99668.53
2022-07-31T03:00:44.195Z,99675.53
2022-07-31T03:03:11.042Z,99675.09
2022-07-31T03:05:37.665Z,99674.38
2022-07-31T03:08:04.557Z,99679.47
2022-07-31T03:10:31.241Z,99679.41
2022-07-31T03:12:58.863Z,99682.31
2022-07-31T03:15:27.109Z,99682.44
2022-07-31T03:17:54.829Z,99685.38
2022-07-31T03:20:22.558Z,99685.66
2022-07-31T03:22:49.973Z,99685.75
2022-07-31T03:25:21.512Z,99687.28
2022-07-31T03:27:52.396Z,99680.63
2022-07-31T03:30:22.765Z,99678.59
2022-07-31T03:32:49.400Z,99679.50
2022-07-31T03:35:16.022Z,99677.00
2022-07-31T03:37:42.711Z,99683.16
2022-07-31T03:40:10.276Z,99674.72
2022-07-31T03:42:37.041Z,99680.19
2022-07-31T03:45:06.400Z,99675.84
2022-07-31T03:47:33.304Z,99677.09
2022-07-31T03:50:01.219Z,99678.47
2022-07-31T03:52:29.559Z,99666.94
2022-07-31T03:54:56.483Z,99672.16
2022-07-31T03:57:28.753Z,99673.69
2022-07-31T03:59:59.322Z,99671.50
2022-07-31T04:02:27.914Z,99675.75
2022-07-31T04:04:55.481Z,99678.56
2022-07-31T04:07:22.148Z,99673.78
2022-07-31T04:09:48.970Z,99675.28
2022-07-31T04:12:15.728Z,99676.44
2022-07-31T04:14:42.489Z,99679.13
2022-07-31T04:17:09.250Z,99688.41
2022-07-31T04:19:36.175Z,99680.06
2022-07-31T04:22:03.578Z,99681.88
2022-07-31T04:24:30.495Z,99679.13
2022-07-31T04:26:58.068Z,99687.47
2022-07-31T04:36:30.612Z,99677.94
2022-07-31T04:38:58.887Z,99677.44
2022-07-31T04:41:25.712Z,99684.34
2022-07-31T04:43:52.356Z,99686.31
2022-07-31T04:46:19.149Z,99681.00
2022-07-31T04:48:45.858Z,99688.50
2022-07-31T04:51:20.006Z,99681.50
2022-07-31T04:53:48.510Z,99672.16
2022-07-31T04:56:15.125Z,99680.06
2022-07-31T04:58:41.734Z,99668.66
2022-07-31T05:01:08.405Z,99686.31
2022-07-31T05:03:36.223Z,99682.53
2022-07-31T05:06:12.990Z,99679.59
2022-07-31T05:08:39.946Z,99679.13
2022-07-31T05:11:07.373Z,99682.81
2022-07-31T05:13:34.009Z,99685.66
2022-07-31T05:16:00.625Z,99683.69
2022-07-31T05:18:27.371Z,99687.56
2022-07-31T05:20:54.004Z,99690.59
2022-07-31T05:23:20.803Z,99695.66
2022-07-31T05:25:48.672Z,99701.72
2022-07-31T05:28:15.289Z,99699.25
2022-07-31T05:30:43.568Z,99704.56
2022-07-31T05:33:10.201Z,99706.25
2022-07-31T05:35:38.073Z,99705.34
2022-07-31T05:38:04.725Z,99698.78
2022-07-31T05:40:38.560Z,99699.41
2022-07-31T05:43:05.230Z,99694.03
2022-07-31T05:45:31.978Z,99707.81
2022-07-31T05:47:58.614Z,99708.50
2022-07-31T05:50:26.486Z,99703.78
2022-07-31T05:52:53.133Z,99701.81
2022-07-31T05:55:19.872Z,99708.41
2022-07-31T05:57:46.817Z,99721.06
2022-07-31T06:00:14.194Z,99705.84
2022-07-31T06:02:41.241Z,99704.38
2022-07-31T06:05:08.442Z,99710.13
2022-07-31T06:07:35.064Z,99711.66
2022-07-31T06:10:03.257Z,99708.31
2022-07-31T06:12:29.882Z,99705.25
2022-07-31T06:14:56.717Z,99705.84
2022-07-31T06:17:23.478Z,99706.34
2022-07-31T06:20:07.962Z,99713.69
2022-07-31T06:22:34.635Z,99709.53
2022-07-31T06:25:01.521Z,99709.84
2022-07-31T06:27:33.564Z,99714.91
2022-07-31T06:30:02.007Z,99707.22
2022-07-31T06:32:28.722Z,99714.13
2022-07-31T06:34:55.455Z,99709.88
2022-07-31T06:37:22.254Z,99709.59
2022-07-31T06:39:56.029Z,99716.09
2022-07-31T06:42:24.612Z,99704.38
2022-07-31T06:44:52.362Z,99715.81
2022-07-31T06:47:22.845Z,99729.97
2022-07-31T06:49:49.823Z,99715.44
2022-07-31T06:52:17.027Z,99715.50
2022-07-31T06:54:44.050Z,99718.22
2022-07-31T06:57:11.629Z,99713.28
2022-07-31T06:59:39.792Z,99716.47
2022-07-31T07:02:08.187Z,99713.81
2022-07-31T07:05:00.028Z,99703.81
2022-07-31T07:07:26.889Z,99712.44
2022-07-31T07:09:58.908Z,99708.03
2022-07-31T07:12:26.930Z,99704.31
2022-07-31T07:14:55.196Z,99696.66
2022-07-31T07:17:24.800Z,99711.06
2022-07-31T07:19:54.743Z,99717.16
2022-07-31T07:22:30.057Z,99698.31
2022-07-31T07:24:59.661Z,99700.44
2022-07-31T07:27:26.495Z,99709.09
2022-07-31T07:29:53.235Z,99700.06
2022-07-31T07:32:19.855Z,99700.28
2022-07-31T07:34:46.513Z,99701.63
2022-07-31T07:37:13.166Z,99710.53
2022-07-31T07:39:39.806Z,99709.00
2022-07-31T07:42:06.794Z,99701.78
2022-07-31T07:44:33.703Z,99697.88
2022-07-31T07:47:00.320Z,99702.78
2022-07-31T07:49:27.075Z,99701.03
2022-07-31T07:51:58.743Z,99704.28
2022-07-31T07:54:27.253Z,99705.53
2022-07-31T07:56:53.889Z,99707.13
2022-07-31T07:59:20.612Z,99705.63
2022-07-31T08:01:47.384Z,99711.69
2022-07-31T08:04:14.048Z,99708.09
2022-07-31T08:06:43.870Z,99709.69
2022-07-31T08:09:10.600Z,99707.59
2022-07-31T08:11:37.218Z,99719.22
2022-07-31T08:14:03.865Z,99717.50
2022-07-31T08:16:30.718Z,99718.84
2022-07-31T08:18:57.388Z,99718.84
2022-07-31T08:21:25.360Z,99724.63
2022-07-31T08:23:51.992Z,99738.56
2022-07-31T08:26:18.855Z,99719.97
2022-07-31T08:28:49.800Z,99730.41
2022-07-31T08:31:20.673Z,99746.84
2022-07-31T08:33:47.322Z,99738.84
2022-07-31T08:36:13.960Z,99736.00
2022-07-31T08:38:40.561Z,99744.66
2022-07-31T08:41:07.215Z,99745.28
2022-07-31T08:44:02.990Z,99735.91
2022-07-31T08:46:22.317Z,99740.78
2022-07-31T08:48:51.370Z,99732.16
2022-07-31T08:51:18.710Z,99726.84
2022-07-31T08:53:46.560Z,99734.97
2022-07-31T08:56:13.574Z,99737.66
2022-07-31T08:58:40.270Z,99740.44
2022-07-31T09:01:08.838Z,99732.09
2022-07-31T09:03:35.790Z,99743.47
2022-07-31T09:06:02.582Z,99740.03
2022-07-31T09:08:35.673Z,99746.13
2022-07-31T09:11:06.993Z,99764.75
2022-07-31T09:13:34.126Z,99742.88
2022-07-31T09:16:02.021Z,99746.44
2022-07-31T09:18:29.995Z,99747.69
2022-07-31T09:21:05.776Z,99745.97
2022-07-31T09:23:33.300Z,99767.25
2022-07-31T09:26:03.321Z,99753.69
2022-07-31T09:28:32.952Z,99751.19
2022-07-31T09:30:59.851Z,99761.28
2022-07-31T09:33:28.329Z,99767.56
2022-07-31T09:35:55.482Z,99749.84
2022-07-31T09:38:22.132Z,99744.34
2022-07-31T09:40:55.463Z,99772.16
2022-07-31T09:43:24.482Z,99759.25
2022-07-31T09:45:58.814Z,99756.59
2022-07-31T09:48:26.742Z,99743.88
2022-07-31T09:51:05.038Z,99763.19
2022-07-31T09:53:43.566Z,99758.81
2022-07-31T09:56:10.491Z,99755.41
2022-07-31T09:58:37.123Z,99771.50
2022-07-31T10:01:03.875Z,99774.59
2022-07-31T10:03:30.924Z,99769.69
2022-07-31T10:05:58.881Z,99765.22
2022-07-31T10:08:29.121Z,99757.72
2022-07-31T10:10:55.865Z,99772.53
2022-07-31T10:13:23.554Z,99778.63
2022-07-31T10:15:53.659Z,99776.59
2022-07-31T10:18:36.166Z,99777.50
2022-07-31T10:21:05.912Z,99781.19
2022-07-31T10:23:34.723Z,99772.50
2022-07-31T10:26:03.562Z,99775.00
2022-07-31T10:28:30.384Z,99777.31
2022-07-31T10:30:58.011Z,99767.84
2022-07-31T10:36:25.620Z,99773.22
2022-07-31T10:39:00.784Z,99761.25
2022-07-31T10:41:36.600Z,99771.31
2022-07-31T10:44:13.822Z,99776.78
2022-07-31T10:46:40.472Z,99778.41
2022-07-31T10:49:08.724Z,99774.53
2022-07-31T10:51:51.867Z,99786.34
2022-07-31T10:54:18.501Z,99784.00
2022-07-31T10:56:46.753Z,99800.81
2022-07-31T10:59:13.522Z,99794.25
2022-07-31T11:01:52.570Z,99791.25
2022-07-31T11:04:32.593Z,99796.56
2022-07-31T11:07:00.503Z,99794.44
2022-07-31T11:09:28.981Z,99798.53
2022-07-31T11:11:55.990Z,99809.72
2022-07-31T11:14:33.529Z,99815.28
2022-07-31T11:17:00.170Z,99816.13
2022-07-31T11:19:41.362Z,99806.84
2022-07-31T11:22:32.145Z,99829.00
2022-07-31T11:25:00.880Z,99813.09
2022-07-31T11:27:32.073Z,99817.38
2022-07-31T11:30:13.067Z,99814.50
2022-07-31T11:32:41.772Z,99823.69
2022-07-31T11:35:08.808Z,99814.94
2022-07-31T11:37:56.489Z,99825.94
2022-07-31T11:40:27.826Z,99806.22
2022-07-31T11:43:23.263Z,99817.09
2022-07-31T11:45:53.294Z,99818.81
2022-07-31T11:48:26.533Z,99812.72
2022-07-31T11:50:54.331Z,99811.31
2022-07-31T11:53:20.951Z,99821.56
2022-07-31T11:55:55.917Z,99818.81
2022-07-31T11:58:24.875Z,99822.75
2022-07-31T12:00:57.463Z,99818.25
2022-07-31T12:03:38.385Z,99817.94
2022-07-31T12:06:07.776Z,99830.38
2022-07-31T12:08:34.989Z,99830.81
2022-07-31T12:11:04.962Z,99839.06
2022-07-31T12:13:31.863Z,99840.25
2022-07-31T12:16:02.120Z,99840.84
2022-07-31T12:18:30.477Z,99840.22
2022-07-31T12:20:58.604Z,99829.44
2022-07-31T12:23:41.010Z,99840.16
2022-07-31T12:26:11.262Z,99840.13
2022-07-31T12:28:37.890Z,99846.41
2022-07-31T12:31:04.610Z,99843.72
2022-07-31T12:33:42.212Z,99838.03
2022-07-31T12:36:13.820Z,99846.22
2022-07-31T12:38:45.127Z,99849.94
2022-07-31T12:41:15.530Z,99839.50
2022-07-31T12:43:51.906Z,99848.53
2022-07-31T12:46:34.861Z,99856.38
2022-07-31T12:49:01.629Z,99851.97
2022-07-31T12:51:46.200Z,99856.44
2022-07-31T12:54:15.976Z,99864.34
2022-07-31T12:56:43.462Z,99860.22
2022-07-31T12:59:11.047Z,99852.63
2022-07-31T13:01:38.269Z,99873.72
2022-07-31T13:04:05.958Z,99862.00
2022-07-31T13:06:35.397Z,99852.78
2022-07-31T13:09:02.001Z,99848.03
2022-07-31T13:11:28.632Z,99854.16
2022-07-31T13:13:55.336Z,99855.69
2022-07-31T13:16:21.971Z,99852.41
2022-07-31T13:18:48.603Z,99851.44
2022-07-31T13:21:15.257Z,99851.19
2022-07-31T13:23:41.876Z,99856.78
2022-07-31T13:26:08.508Z,99871.06
2022-07-31T13:28:35.184Z,99860.22
2022-07-31T13:31:01.902Z,99860.50
2022-07-31T13:33:28.548Z,99864.16
2022-07-31T13:35:55.250Z,99854.53
2022-07-31T13:38:21.890Z,99857.50
2022-07-31T13:40:48.506Z,99852.69
2022-07-31T13:43:15.169Z,99850.38
2022-07-31T13:45:41.810Z,99861.44
2022-07-31T13:48:09.918Z,99858.28
2022-07-31T13:50:38.630Z,99854.25
2022-07-31T13:53:05.420Z,99861.03
2022-07-31T13:55:32.171Z,99858.56
2022-07-31T13:58:01.099Z,99871.97
2022-07-31T14:00:28.622Z,99861.22
2022-07-31T14:02:55.328Z,99861.69
2022-07-31T14:05:23.940Z,99851.41
2022-07-31T14:07:53.345Z,99853.50
2022-07-31T14:10:22.069Z,99846.25
2022-07-31T14:12:49.254Z,99850.94
2022-07-31T14:15:15.942Z,99858.75
2022-07-31T14:17:42.570Z,99855.34
2022-07-31T14:20:09.639Z,99854.47
2022-07-31T14:22:36.350Z,99847.53
2022-07-31T14:25:03.646Z,99857.59
2022-07-31T14:27:30.539Z,99858.44
2022-07-31T14:29:57.186Z,99860.75
2022-07-31T14:32:23.810Z,99857.13
2022-07-31T14:34:50.663Z,99861.97
2022-07-31T14:37:17.886Z,99865.88
2022-07-31T14:39:44.545Z,99869.69
2022-07-31T14:42:11.706Z,99868.78
2022-07-31T14:44:39.679Z,99869.53
2022-07-31T14:47:06.714Z,99868.66
2022-07-31T14:50:08.977Z,99876.44
2022-07-31T14:52:20.279Z,99888.28
2022-07-31T14:54:46.920Z,99886.19
2022-07-31T14:57:13.958Z,99880.25
2022-07-31T14:59:50.360Z,99888.38
2022-07-31T15:02:22.293Z,99882.41
2022-07-31T15:04:50.285Z,99878.69
2022-07-31T15:10:07.082Z,99861.34
2022-07-31T15:12:34.015Z,99860.56
2022-07-31T15:15:00.686Z,99867.22
2022-07-31T15:17:27.370Z,99872.78
2022-07-31T15:19:54.185Z,99866.13
2022-07-31T15:22:20.949Z,99867.13
2022-07-31T15:24:49.607Z,99865.28
2022-07-31T15:27:20.327Z,99860.97
2022-07-31T15:30:03.931Z,99860.72
2022-07-31T15:32:37.604Z,99859.06
2022-07-31T15:35:06.305Z,99863.22
2022-07-31T15:37:40.790Z,99858.22
2022-07-31T15:40:10.581Z,99848.00
2022-07-31T15:42:39.509Z,99841.69
2022-07-31T15:45:08.594Z,99838.56
2022-07-31T15:47:35.355Z,99832.78
2022-07-31T15:50:02.078Z,99830.41
2022-07-31T15:52:29.072Z,99828.19
2022-07-31T15:54:55.739Z,99826.34
2022-07-31T15:57:23.878Z,99817.53
2022-07-31T15:59:51.622Z,99811.72
2022-07-31T16:02:18.313Z,99810.56
2022-07-31T16:04:52.851Z,99816.97
2022-07-31T16:08:30.191Z,99816.00
2022-07-31T16:10:15.508Z,99812.88
2022-07-31T16:12:47.114Z,99823.34
2022-07-31T16:15:14.307Z,99814.59
2022-07-31T16:17:41.721Z,99827.72
2022-07-31T16:20:11.650Z,99819.03
2022-07-31T16:22:40.880Z,99827.31
2022-07-31T16:25:08.712Z,99819.50
2022-07-31T16:27:35.969Z,99821.03
2022-07-31T16:30:04.054Z,99822.06
2022-07-31T16:32:30.934Z,99822.94
2022-07-31T16:35:01.054Z,99816.56
2022-07-31T16:37:50.953Z,99823.72
2022-07-31T16:40:28.583Z,99824.66
2022-07-31T16:43:50.125Z,99822.66
2022-07-31T16:45:49.466Z,99819.03
2022-07-31T16:48:16.148Z,99830.94
2022-07-31T16:50:42.849Z,99835.13
2022-07-31T16:53:09.504Z,99831.31
2022-07-31T16:55:51.682Z,99827.31
2022-07-31T16:58:27.178Z,99821.13
2022-07-31T17:00:53.974Z,99832.44
2022-07-31T17:03:58.361Z,99829.97
2022-07-31T17:06:07.315Z,99824.81
2022-07-31T17:08:33.977Z,99833.50
2022-07-31T17:11:00.604Z,99823.53
2022-07-31T17:13:27.246Z,99824.47
2022-07-31T17:15:53.956Z,99829.97
2022-07-31T17:18:20.609Z,99826.00
2022-07-31T17:20:47.320Z,99825.78
2022-07-31T17:23:14.471Z,99820.69
2022-07-31T17:25:42.606Z,99819.34
2022-07-31T17:28:14.680Z,99825.59
2022-07-31T17:30:42.186Z,99830.34
2022-07-31T17:33:08.897Z,99830.72
2022-07-31T17:35:35.544Z,99830.34
2022-07-31T17:38:02.240Z,99829.59
2022-07-31T17:40:43.094Z,99842.81
2022-07-31T17:43:10.630Z,99842.91
2022-07-31T17:45:59.674Z,99846.50
2022-07-31T17:48:23.961Z,99846.09
2022-07-31T17:50:54.102Z,99846.72
2022-07-31T17:53:21.066Z,99846.09
2022-07-31T17:55:47.851Z,99847.28
2022-07-31T17:58:14.485Z,99848.50
2022-07-31T18:00:41.127Z,99852.03
2022-07-31T18:03:07.930Z,99859.63
2022-07-31T18:05:34.724Z,99861.91
2022-07-31T18:08:01.350Z,99854.47
2022-07-31T18:10:52.982Z,99847.09
2022-07-31T18:13:14.637Z,99851.94
2022-07-31T18:15:41.264Z,99847.09
2022-07-31T18:18:07.897Z,99860.38
2022-07-31T18:20:34.766Z,99855.53
2022-07-31T18:23:01.470Z,99849.75
2022-07-31T18:25:28.086Z,99859.53
2022-07-31T18:27:54.748Z,99853.19
2022-07-31T18:30:21.352Z,99860.97
2022-07-31T18:32:47.970Z,99852.41
2022-07-31T18:35:14.711Z,99856.78
2022-07-31T18:37:41.353Z,99867.69
2022-07-31T18:40:08.681Z,99866.13
2022-07-31T18:42:35.299Z,99856.13
2022-07-31T18:45:01.953Z,99857.25
2022-07-31T18:47:28.606Z,99859.63
2022-07-31T18:51:01.941Z,99857.78
2022-07-31T18:52:41.820Z,99862.63
2022-07-31T18:55:08.866Z,99870.06
2022-07-31T18:57:35.581Z,99880.41
2022-07-31T19:00:02.593Z,99878.34
2022-07-31T19:02:29.344Z,99873.69
2022-07-31T19:04:56.062Z,99873.59
2022-07-31T19:07:22.700Z,99878.03
2022-07-31T19:09:49.340Z,99877.63
2022-07-31T19:12:16.107Z,99881.75
2022-07-31T19:14:43.017Z,99878.56
2022-07-31T19:17:09.692Z,99892.47
2022-07-31T19:19:54.357Z,99893.53
2022-07-31T19:22:22.563Z,99891.13
2022-07-31T19:24:49.386Z,99898.25
2022-07-31T19:27:16.091Z,99908.22
2022-07-31T19:29:42.836Z,99903.41
2022-07-31T19:32:09.577Z,99911.00
2022-07-31T19:34:36.253Z,99906.56
2022-07-31T19:37:03.047Z,99908.09
2022-07-31T19:39:30.465Z,99909.06
2022-07-31T19:42:11.860Z,99904.94
2022-07-31T19:44:39.632Z,99910.75
2022-07-31T19:47:06.358Z,99912.03
2022-07-31T19:49:37.831Z,99902.06
2022-07-31T19:52:05.894Z,99896.69
2022-07-31T19:54:32.867Z,99902.06
2022-07-31T19:56:59.489Z,99886.38
2022-07-31T19:59:26.133Z,99899.97
2022-07-31T20:01:52.760Z,99895.09
2022-07-31T20:04:19.383Z,99896.16
2022-07-31T20:06:46.131Z,99890.59
2022-07-31T20:09:12.849Z,99888.16
2022-07-31T20:11:39.476Z,99882.50
2022-07-31T20:14:06.103Z,99886.41
2022-07-31T20:16:32.759Z,99874.59
2022-07-31T20:18:59.719Z,99879.19
2022-07-31T20:21:26.994Z,99881.75
2022-07-31T20:24:01.717Z,99886.13
2022-07-31T20:26:28.325Z,99889.09
2022-07-31T20:28:55.472Z,99883.28
2022-07-31T20:31:22.249Z,99888.44
2022-07-31T20:33:57.462Z,99885.22
2022-07-31T20:36:26.325Z,99889.59
2022-07-31T20:38:53.295Z,99885.47
2022-07-31T20:41:19.980Z,99884.44
2022-07-31T20:43:46.669Z,99884.25
2022-07-31T20:46:13.311Z,99882.66
2022-07-31T20:48:39.954Z,99889.72
2022-07-31T20:51:06.707Z,99889.38
2022-07-31T20:53:33.364Z,99885.25
2022-07-31T20:56:00.133Z,99884.28
2022-07-31T20:58:27.034Z,99892.66
2022-07-31T21:00:53.887Z,99886.53
2022-07-31T21:03:21.573Z,99890.38
2022-07-31T21:05:48.707Z,99892.50
2022-07-31T21:08:16.602Z,99890.75
2022-07-31T21:10:43.936Z,99890.66
2022-07-31T21:13:10.673Z,99900.06
2022-07-31T21:15:41.594Z,99900.72
2022-07-31T21:18:18.648Z,99910.94
2022-07-31T21:20:51.614Z,99902.41
2022-07-31T21:23:26.739Z,99907.41
2022-07-31T21:25:55.799Z,99913.66
2022-07-31T21:28:25.044Z,99914.31
2022-07-31T21:30:52.054Z,99910.66
2022-07-31T21:33:18.793Z,99914.63
2022-07-31T21:35:46.434Z,99918.06
2022-07-31T21:38:13.279Z,99911.53
2022-07-31T21:40:40.534Z,99915.38
2022-07-31T21:43:08.802Z,99908.97
2022-07-31T21:45:50.290Z,99904.31
2022-07-31T21:48:24.383Z,99917.72
2022-07-31T21:50:51.496Z,99921.59
2022-07-31T21:53:18.259Z,99924.50
2022-07-31T21:55:44.942Z,99922.03
2022-07-31T21:58:11.681Z,99930.97
2022-07-31T22:00:38.401Z,99924.31
2022-07-31T22:03:06.146Z,99922.69
2022-07-31T22:05:33.437Z,99931.31
2022-07-31T22:08:00.077Z,99923.13
2022-07-31T22:10:31.638Z,99928.34
2022-07-31T22:12:59.351Z,99924.81
2022-07-31T22:15:26.111Z,99930.25
2022-07-31T22:18:12.926Z,99925.81
2022-07-31T22:20:39.999Z,99927.13
2022-07-31T22:23:06.823Z,99930.84
2022-07-31T22:25:33.768Z,99927.38
2022-07-31T22:28:02.889Z,99926.53
2022-07-31T22:30:29.831Z,99928.84
2022-07-31T22:32:59.041Z,99922.53
2022-07-31T22:35:27.055Z,99917.25
2022-07-31T22:37:54.540Z,99913.97
2022-07-31T22:40:23.370Z,99921.22
2022-07-31T22:42:56.052Z,99918.94
2022-07-31T22:45:24.401Z,99910.78
2022-07-31T22:47:51.277Z,99912.97
2022-07-31T22:50:18.030Z,99908.22
2022-07-31T22:52:44.673Z,99911.31
2022-07-31T22:55:12.147Z,99908.47
2022-07-31T22:57:38.975Z,99918.16
2022-07-31T23:00:07.445Z,99891.91
2022-07-31T23:02:34.224Z,99900.53
2022-07-31T23:05:00.855Z,99895.63
2022-07-31T23:07:27.525Z,99892.13
2022-07-31T23:09:54.295Z,99900.19
2022-07-31T23:12:20.933Z,99904.84
2022-07-31T23:14:47.557Z,99902.19
2022-07-31T23:17:23.282Z,99900.63
2022-07-31T23:19:53.621Z,99906.50
2022-07-31T23:22:33.358Z,99907.75
2022-07-31T23:25:02.411Z,99904.56
2022-07-31T23:27:29.055Z,99912.69
2022-07-31T23:29:55.688Z,99908.03
2022-07-31T23:32:22.286Z,99905.13
2022-07-31T23:34:48.978Z,99904.63
2022-07-31T23:37:15.669Z,99902.75
2022-07-31T23:39:42.301Z,99894.84
2022-07-31T23:42:09.059Z,99900.84
2022-07-31T23:44:40.078Z,99895.78
2022-07-31T23:47:09.255Z,99900.84
2022-07-31T23:49:36.014Z,99900.53
2022-07-31T23:52:02.955Z,99893.88
2022-07-31T23:54:29.730Z,99891.81
2022-07-31T23:56:56.357Z,99899.69
2022-07-31T23:59:23.031Z,99895.97
